BNE weather

Brisbane International Airport
Brisbane, Queensland, Australia

Public forecast

Using degrees Celsius for public forecast. Weather courtesy of forecast.io.

METAR (pilot weather report)

Retrieved 2019/01/22 12:00 UTC (14 minutes ago):

YBBN 221200Z 04007KT 9999 FEW020 25/21 Q1017 NOSIG

TAF (pilot weather forecast)

Retrieved 2019/01/22 12:00 UTC (14 minutes ago):

TAF YBBN 221128Z 2212/2318 03008KT 9999 SCT020 FM221700 35005KT 9999 SCT018 FM222200 36010KT 9999 SCT030 FM230100 02014KT 9999 FEW035 FM231200 35008KT 9999 FEW020